sensor_id;sensor_type;location;lat;lon;timestamp;temperature;humidity
37408;DHT22;24866;50.248;8.252;2023-06-14T00:00:50;13.70;1.00
37408;DHT22;24866;50.248;8.252;2023-06-14T00:03:21;13.90;1.00
37408;DHT22;24866;50.248;8.252;2023-06-14T00:05:54;13.90;1.00
37408;DHT22;24866;50.248;8.252;2023-06-14T00:08:24;14.30;99.90
37408;DHT22;24866;50.248;8.252;2023-06-14T00:10:54;14.40;99.90
37408;DHT22;24866;50.248;8.252;2023-06-14T00:13:24;13.90;99.90
37408;DHT22;24866;50.248;8.252;2023-06-14T00:15:54;13.60;99.90
37408;DHT22;24866;50.248;8.252;2023-06-14T00:18:24;13.80;99.90
37408;DHT22;24866;50.248;8.252;2023-06-14T00:21:05;14.10;1.00
37408;DHT22;24866;50.248;8.252;2023-06-14T00:23:35;13.50;99.90
37408;DHT22;24866;50.248;8.252;2023-06-14T00:26:04;13.60;99.90
37408;DHT22;24866;50.248;8.252;2023-06-14T00:28:35;13.50;99.90
37408;DHT22;24866;50.248;8.252;2023-06-14T00:31:04;13.60;99.90
37408;DHT22;24866;50.248;8.252;2023-06-14T00:33:34;13.40;99.90
37408;DHT22;24866;50.248;8.252;2023-06-14T00:36:06;13.40;1.00
37408;DHT22;24866;50.248;8.252;2023-06-14T00:38:35;13.80;88.80
37408;DHT22;24866;50.248;8.252;2023-06-14T00:41:05;13.30;1.00
37408;DHT22;24866;50.248;8.252;2023-06-14T00:43:35;13.40;1.00
37408;DHT22;24866;50.248;8.252;2023-06-14T00:46:05;13.60;29.20
37408;DHT22;24866;50.248;8.252;2023-06-14T00:48:37;13.30;1.00
37408;DHT22;24866;50.248;8.252;2023-06-14T00:51:08;13.60;93.30
37408;DHT22;24866;50.248;8.252;2023-06-14T00:53:38;13.80;1.00
37408;DHT22;24866;50.248;8.252;2023-06-14T00:56:09;13.70;99.90
37408;DHT22;24866;50.248;8.252;2023-06-14T00:58:42;13.70;1.00
37408;DHT22;24866;50.248;8.252;2023-06-14T01:01:12;13.80;1.00
37408;DHT22;24866;50.248;8.252;2023-06-14T01:03:42;13.80;1.00
37408;DHT22;24866;50.248;8.252;2023-06-14T01:06:32;13.40;99.90
37408;DHT22;24866;50.248;8.252;2023-06-14T01:09:15;13.80;99.90
37408;DHT22;24866;50.248;8.252;2023-06-14T01:11:57;13.20;99.90
37408;DHT22;24866;50.248;8.252;2023-06-14T01:14:28;13.50;1.00
37408;DHT22;24866;50.248;8.252;2023-06-14T01:17:00;13.60;99.90
37408;DHT22;24866;50.248;8.252;2023-06-14T01:19:30;13.40;99.90
37408;DHT22;24866;50.248;8.252;2023-06-14T01:22:04;13.60;1.00
37408;DHT22;24866;50.248;8.252;2023-06-14T01:24:35;13.80;51.00
37408;DHT22;24866;50.248;8.252;2023-06-14T01:27:05;13.50;99.90
37408;DHT22;24866;50.248;8.252;2023-06-14T01:29:36;13.60;99.90
37408;DHT22;24866;50.248;8.252;2023-06-14T01:32:07;12.90;1.00
37408;DHT22;24866;50.248;8.252;2023-06-14T01:34:37;12.90;1.00
37408;DHT22;24866;50.248;8.252;2023-06-14T01:37:08;13.20;1.00
37408;DHT22;24866;50.248;8.252;2023-06-14T01:39:39;13.30;1.00
37408;DHT22;24866;50.248;8.252;2023-06-14T01:42:11;13.00;1.00
37408;DHT22;24866;50.248;8.252;2023-06-14T01:44:43;13.10;99.90
37408;DHT22;24866;50.248;8.252;2023-06-14T01:47:14;13.30;1.00
37408;DHT22;24866;50.248;8.252;2023-06-14T01:49:46;13.40;1.00
37408;DHT22;24866;50.248;8.252;2023-06-14T01:52:16;13.30;9.90
37408;DHT22;24866;50.248;8.252;2023-06-14T01:54:49;13.10;1.00
37408;DHT22;24866;50.248;8.252;2023-06-14T01:57:19;13.10;1.00
37408;DHT22;24866;50.248;8.252;2023-06-14T01:59:50;13.00;99.90
37408;DHT22;24866;50.248;8.252;2023-06-14T02:02:20;12.80;99.90
37408;DHT22;24866;50.248;8.252;2023-06-14T02:04:49;12.80;99.90
37408;DHT22;24866;50.248;8.252;2023-06-14T02:07:19;13.00;99.90
37408;DHT22;24866;50.248;8.252;2023-06-14T02:09:50;13.10;99.90
37408;DHT22;24866;50.248;8.252;2023-06-14T02:12:20;12.60;1.00
37408;DHT22;24866;50.248;8.252;2023-06-14T02:14:50;12.70;1.00
37408;DHT22;24866;50.248;8.252;2023-06-14T02:17:20;12.50;1.00
37408;DHT22;24866;50.248;8.252;2023-06-14T02:19:50;12.30;99.90
37408;DHT22;24866;50.248;8.252;2023-06-14T02:22:20;12.40;99.90
37408;DHT22;24866;50.248;8.252;2023-06-14T02:24:51;12.30;99.90
37408;DHT22;24866;50.248;8.252;2023-06-14T02:27:21;12.70;99.90
37408;DHT22;24866;50.248;8.252;2023-06-14T02:29:51;12.80;1.00
37408;DHT22;24866;50.248;8.252;2023-06-14T02:32:21;12.90;59.10
37408;DHT22;24866;50.248;8.252;2023-06-14T02:34:51;12.90;1.00
37408;DHT22;24866;50.248;8.252;2023-06-14T02:37:21;12.90;1.00
37408;DHT22;24866;50.248;8.252;2023-06-14T02:39:53;12.60;1.00
37408;DHT22;24866;50.248;8.252;2023-06-14T02:42:22;12.40;1.00
37408;DHT22;24866;50.248;8.252;2023-06-14T02:44:52;12.40;20.60
37408;DHT22;24866;50.248;8.252;2023-06-14T02:47:22;12.50;99.90
37408;DHT22;24866;50.248;8.252;2023-06-14T02:49:53;12.60;1.00
37408;DHT22;24866;50.248;8.252;2023-06-14T02:52:22;12.70;99.90
37408;DHT22;24866;50.248;8.252;2023-06-14T02:54:55;12.70;1.00
37408;DHT22;24866;50.248;8.252;2023-06-14T02:57:24;12.30;1.00
37408;DHT22;24866;50.248;8.252;2023-06-14T02:59:54;12.40;1.00
37408;DHT22;24866;50.248;8.252;2023-06-14T03:02:24;12.30;1.00
37408;DHT22;24866;50.248;8.252;2023-06-14T03:04:54;12.40;99.90
37408;DHT22;24866;50.248;8.252;2023-06-14T03:07:24;12.50;99.90
37408;DHT22;24866;50.248;8.252;2023-06-14T03:09:57;12.40;99.90
37408;DHT22;24866;50.248;8.252;2023-06-14T03:12:27;12.40;1.00
37408;DHT22;24866;50.248;8.252;2023-06-14T03:14:56;12.10;6.10
37408;DHT22;24866;50.248;8.252;2023-06-14T03:17:30;12.20;1.00
37408;DHT22;24866;50.248;8.252;2023-06-14T03:20:02;12.00;1.00
37408;DHT22;24866;50.248;8.252;2023-06-14T03:22:34;12.00;28.20
37408;DHT22;24866;50.248;8.252;2023-06-14T03:25:07;12.20;81.00
37408;DHT22;24866;50.248;8.252;2023-06-14T03:27:37;12.10;99.90
37408;DHT22;24866;50.248;8.252;2023-06-14T03:30:08;12.10;99.90
37408;DHT22;24866;50.248;8.252;2023-06-14T03:32:38;12.10;99.90
37408;DHT22;24866;50.248;8.252;2023-06-14T03:35:08;11.40;6.80
37408;DHT22;24866;50.248;8.252;2023-06-14T03:37:45;11.70;99.90
37408;DHT22;24866;50.248;8.252;2023-06-14T03:40:18;11.90;1.00
37408;DHT22;24866;50.248;8.252;2023-06-14T03:42:49;12.10;1.00
37408;DHT22;24866;50.248;8.252;2023-06-14T03:45:18;12.10;1.00
37408;DHT22;24866;50.248;8.252;2023-06-14T03:47:49;12.10;1.00
37408;DHT22;24866;50.248;8.252;2023-06-14T03:50:20;11.90;1.00
37408;DHT22;24866;50.248;8.252;2023-06-14T03:52:50;11.70;5.50
37408;DHT22;24866;50.248;8.252;2023-06-14T03:55:21;11.90;99.90
37408;DHT22;24866;50.248;8.252;2023-06-14T03:57:53;12.10;40.80
37408;DHT22;24866;50.248;8.252;2023-06-14T04:00:23;11.90;2.90
37408;DHT22;24866;50.248;8.252;2023-06-14T04:02:53;12.00;62.00
37408;DHT22;24866;50.248;8.252;2023-06-14T04:05:23;11.90;54.60
37408;DHT22;24866;50.248;8.252;2023-06-14T04:07:54;12.10;33.50
37408;DHT22;24866;50.248;8.252;2023-06-14T04:10:28;12.00;1.00
37408;DHT22;24866;50.248;8.252;2023-06-14T04:12:58;12.00;1.00
37408;DHT22;24866;50.248;8.252;2023-06-14T04:15:27;11.90;47.70
37408;DHT22;24866;50.248;8.252;2023-06-14T04:17:57;11.90;99.90
37408;DHT22;24866;50.248;8.252;2023-06-14T04:20:27;12.10;99.90
37408;DHT22;24866;50.248;8.252;2023-06-14T04:22:57;12.10;99.90
37408;DHT22;24866;50.248;8.252;2023-06-14T04:25:31;12.00;99.90
37408;DHT22;24866;50.248;8.252;2023-06-14T04:28:00;11.80;99.90
37408;DHT22;24866;50.248;8.252;2023-06-14T04:30:30;11.80;99.90
37408;DHT22;24866;50.248;8.252;2023-06-14T04:33:00;12.00;99.90
37408;DHT22;24866;50.248;8.252;2023-06-14T04:35:34;11.90;99.90
37408;DHT22;24866;50.248;8.252;2023-06-14T04:38:05;11.50;99.90
37408;DHT22;24866;50.248;8.252;2023-06-14T04:40:39;11.90;99.90
37408;DHT22;24866;50.248;8.252;2023-06-14T04:43:11;12.20;99.90
37408;DHT22;24866;50.248;8.252;2023-06-14T04:45:41;12.30;99.90
37408;DHT22;24866;50.248;8.252;2023-06-14T04:48:13;12.40;99.90
37408;DHT22;24866;50.248;8.252;2023-06-14T04:50:43;12.50;99.90
37408;DHT22;24866;50.248;8.252;2023-06-14T04:53:14;12.50;99.90
37408;DHT22;24866;50.248;8.252;2023-06-14T04:55:45;12.70;99.90
37408;DHT22;24866;50.248;8.252;2023-06-14T04:58:15;12.70;99.90
37408;DHT22;24866;50.248;8.252;2023-06-14T05:00:46;12.70;99.90
37408;DHT22;24866;50.248;8.252;2023-06-14T05:03:16;12.90;99.90
37408;DHT22;24866;50.248;8.252;2023-06-14T05:05:48;13.10;99.90
37408;DHT22;24866;50.248;8.252;2023-06-14T05:08:19;13.20;99.90
37408;DHT22;24866;50.248;8.252;2023-06-14T05:10:53;13.20;99.90
37408;DHT22;24866;50.248;8.252;2023-06-14T05:13:23;13.30;99.90
37408;DHT22;24866;50.248;8.252;2023-06-14T05:15:56;13.40;99.90
37408;DHT22;24866;50.248;8.252;2023-06-14T05:18:26;13.60;99.90
37408;DHT22;24866;50.248;8.252;2023-06-14T05:20:56;13.80;99.90
37408;DHT22;24866;50.248;8.252;2023-06-14T05:23:26;13.90;99.90
37408;DHT22;24866;50.248;8.252;2023-06-14T05:25:58;14.00;99.90
37408;DHT22;24866;50.248;8.252;2023-06-14T05:28:28;14.10;99.90
37408;DHT22;24866;50.248;8.252;2023-06-14T05:30:57;14.40;1.00
37408;DHT22;24866;50.248;8.252;2023-06-14T05:33:27;14.60;1.00
37408;DHT22;24866;50.248;8.252;2023-06-14T05:35:57;14.70;1.00
37408;DHT22;24866;50.248;8.252;2023-06-14T05:38:27;14.80;1.00
37408;DHT22;24866;50.248;8.252;2023-06-14T05:40:58;14.90;1.00
37408;DHT22;24866;50.248;8.252;2023-06-14T05:43:29;14.90;99.90
37408;DHT22;24866;50.248;8.252;2023-06-14T05:46:00;15.00;1.00
37408;DHT22;24866;50.248;8.252;2023-06-14T05:48:30;15.10;1.00
37408;DHT22;24866;50.248;8.252;2023-06-14T05:51:00;15.30;99.90
37408;DHT22;24866;50.248;8.252;2023-06-14T05:53:31;15.30;99.90
37408;DHT22;24866;50.248;8.252;2023-06-14T05:56:02;15.50;99.90
37408;DHT22;24866;50.248;8.252;2023-06-14T05:58:32;15.60;94.50
37408;DHT22;24866;50.248;8.252;2023-06-14T06:01:02;15.60;1.00
37408;DHT22;24866;50.248;8.252;2023-06-14T06:03:32;15.70;1.00
37408;DHT22;24866;50.248;8.252;2023-06-14T06:06:02;15.90;1.00
37408;DHT22;24866;50.248;8.252;2023-06-14T06:08:33;15.90;1.00
37408;DHT22;24866;50.248;8.252;2023-06-14T06:11:08;15.90;99.90
37408;DHT22;24866;50.248;8.252;2023-06-14T06:13:38;16.00;99.90
37408;DHT22;24866;50.248;8.252;2023-06-14T06:16:09;16.10;99.90
37408;DHT22;24866;50.248;8.252;2023-06-14T06:18:39;16.20;99.90
37408;DHT22;24866;50.248;8.252;2023-06-14T06:21:09;16.30;99.90
37408;DHT22;24866;50.248;8.252;2023-06-14T06:23:39;16.40;99.90
37408;DHT22;24866;50.248;8.252;2023-06-14T06:26:10;16.50;99.90
37408;DHT22;24866;50.248;8.252;2023-06-14T06:28:43;16.60;99.90
37408;DHT22;24866;50.248;8.252;2023-06-14T06:31:12;16.80;99.90
37408;DHT22;24866;50.248;8.252;2023-06-14T06:33:42;16.80;99.90
37408;DHT22;24866;50.248;8.252;2023-06-14T06:36:12;16.80;1.00
37408;DHT22;24866;50.248;8.252;2023-06-14T06:38:42;16.90;47.40
37408;DHT22;24866;50.248;8.252;2023-06-14T06:41:13;17.30;99.90
37408;DHT22;24866;50.248;8.252;2023-06-14T06:43:43;17.20;1.00
37408;DHT22;24866;50.248;8.252;2023-06-14T06:46:13;17.30;6.50
37408;DHT22;24866;50.248;8.252;2023-06-14T06:48:43;17.30;17.20
37408;DHT22;24866;50.248;8.252;2023-06-14T06:51:13;17.30;1.00
37408;DHT22;24866;50.248;8.252;2023-06-14T06:53:43;17.40;1.00
37408;DHT22;24866;50.248;8.252;2023-06-14T06:56:15;17.40;1.00
37408;DHT22;24866;50.248;8.252;2023-06-14T06:58:46;17.60;1.00
37408;DHT22;24866;50.248;8.252;2023-06-14T07:01:16;17.80;1.00
37408;DHT22;24866;50.248;8.252;2023-06-14T07:03:47;17.80;1.00
37408;DHT22;24866;50.248;8.252;2023-06-14T07:06:17;17.90;1.00
37408;DHT22;24866;50.248;8.252;2023-06-14T07:08:48;17.90;1.00
37408;DHT22;24866;50.248;8.252;2023-06-14T07:11:19;18.00;1.00
37408;DHT22;24866;50.248;8.252;2023-06-14T07:13:49;18.20;1.00
37408;DHT22;24866;50.248;8.252;2023-06-14T07:16:19;18.40;1.00
37408;DHT22;24866;50.248;8.252;2023-06-14T07:18:49;18.70;1.00
37408;DHT22;24866;50.248;8.252;2023-06-14T07:21:19;18.70;1.00
37408;DHT22;24866;50.248;8.252;2023-06-14T07:23:51;18.80;1.00
37408;DHT22;24866;50.248;8.252;2023-06-14T07:26:22;18.80;1.00
37408;DHT22;24866;50.248;8.252;2023-06-14T07:28:52;18.90;99.90
37408;DHT22;24866;50.248;8.252;2023-06-14T07:31:22;18.90;99.90
37408;DHT22;24866;50.248;8.252;2023-06-14T07:33:52;19.10;99.90
37408;DHT22;24866;50.248;8.252;2023-06-14T07:36:22;19.30;99.90
37408;DHT22;24866;50.248;8.252;2023-06-14T07:38:52;19.40;99.90
37408;DHT22;24866;50.248;8.252;2023-06-14T07:41:25;19.20;99.90
37408;DHT22;24866;50.248;8.252;2023-06-14T07:43:55;19.20;99.90
37408;DHT22;24866;50.248;8.252;2023-06-14T07:46:25;19.40;99.90
37408;DHT22;24866;50.248;8.252;2023-06-14T07:48:57;19.60;99.90
37408;DHT22;24866;50.248;8.252;2023-06-14T07:51:26;19.30;99.90
37408;DHT22;24866;50.248;8.252;2023-06-14T07:53:59;19.30;99.90
37408;DHT22;24866;50.248;8.252;2023-06-14T07:56:30;18.80;99.90
37408;DHT22;24866;50.248;8.252;2023-06-14T07:59:00;18.90;99.90
37408;DHT22;24866;50.248;8.252;2023-06-14T08:01:30;19.10;99.90
37408;DHT22;24866;50.248;8.252;2023-06-14T08:04:00;19.50;99.90
37408;DHT22;24866;50.248;8.252;2023-06-14T08:06:30;18.90;99.90
37408;DHT22;24866;50.248;8.252;2023-06-14T08:09:00;19.10;69.60
37408;DHT22;24866;50.248;8.252;2023-06-14T08:11:31;19.60;99.90
37408;DHT22;24866;50.248;8.252;2023-06-14T08:14:01;19.60;30.40
37408;DHT22;24866;50.248;8.252;2023-06-14T08:16:31;19.40;1.00
37408;DHT22;24866;50.248;8.252;2023-06-14T08:19:01;19.40;1.00
37408;DHT22;24866;50.248;8.252;2023-06-14T08:21:31;19.60;1.00
37408;DHT22;24866;50.248;8.252;2023-06-14T08:24:02;19.80;74.00
37408;DHT22;24866;50.248;8.252;2023-06-14T08:26:33;19.70;40.50
37408;DHT22;24866;50.248;8.252;2023-06-14T08:29:05;19.80;1.00
37408;DHT22;24866;50.248;8.252;2023-06-14T08:31:36;19.80;1.00
37408;DHT22;24866;50.248;8.252;2023-06-14T08:34:06;19.80;1.00
37408;DHT22;24866;50.248;8.252;2023-06-14T08:36:36;19.90;1.00
37408;DHT22;24866;50.248;8.252;2023-06-14T08:39:06;20.40;1.00
37408;DHT22;24866;50.248;8.252;2023-06-14T08:41:38;19.80;1.00
37408;DHT22;24866;50.248;8.252;2023-06-14T08:44:08;19.90;1.00
37408;DHT22;24866;50.248;8.252;2023-06-14T08:46:38;20.00;1.00
37408;DHT22;24866;50.248;8.252;2023-06-14T08:49:11;20.00;1.00
37408;DHT22;24866;50.248;8.252;2023-06-14T08:51:43;20.00;1.00
37408;DHT22;24866;50.248;8.252;2023-06-14T08:54:13;20.00;1.00
37408;DHT22;24866;50.248;8.252;2023-06-14T08:56:45;20.00;1.00
37408;DHT22;24866;50.248;8.252;2023-06-14T08:59:17;20.10;1.00
37408;DHT22;24866;50.248;8.252;2023-06-14T09:01:47;20.20;1.00
37408;DHT22;24866;50.248;8.252;2023-06-14T09:04:18;20.20;1.00
37408;DHT22;24866;50.248;8.252;2023-06-14T09:06:48;20.10;1.00
37408;DHT22;24866;50.248;8.252;2023-06-14T09:09:21;20.50;1.00
37408;DHT22;24866;50.248;8.252;2023-06-14T09:11:53;20.70;1.00
37408;DHT22;24866;50.248;8.252;2023-06-14T09:14:24;20.40;1.00
37408;DHT22;24866;50.248;8.252;2023-06-14T09:16:54;20.60;1.00
37408;DHT22;24866;50.248;8.252;2023-06-14T09:19:24;20.20;1.00
37408;DHT22;24866;50.248;8.252;2023-06-14T09:21:54;20.30;1.00
37408;DHT22;24866;50.248;8.252;2023-06-14T09:24:24;20.20;1.00
37408;DHT22;24866;50.248;8.252;2023-06-14T09:26:56;19.80;99.90
37408;DHT22;24866;50.248;8.252;2023-06-14T09:29:26;20.10;1.00
37408;DHT22;24866;50.248;8.252;2023-06-14T09:31:56;21.00;1.00
37408;DHT22;24866;50.248;8.252;2023-06-14T09:34:26;20.80;1.00
37408;DHT22;24866;50.248;8.252;2023-06-14T09:36:57;20.70;1.00
37408;DHT22;24866;50.248;8.252;2023-06-14T09:39:27;21.30;1.00
37408;DHT22;24866;50.248;8.252;2023-06-14T09:41:58;21.30;1.00
37408;DHT22;24866;50.248;8.252;2023-06-14T09:44:29;20.70;99.90
37408;DHT22;24866;50.248;8.252;2023-06-14T09:46:59;20.40;99.90
37408;DHT22;24866;50.248;8.252;2023-06-14T09:49:28;20.30;99.90
37408;DHT22;24866;50.248;8.252;2023-06-14T09:51:59;20.00;99.90
37408;DHT22;24866;50.248;8.252;2023-06-14T09:54:29;20.80;99.90
37408;DHT22;24866;50.248;8.252;2023-06-14T09:57:02;20.80;99.90
37408;DHT22;24866;50.248;8.252;2023-06-14T09:59:33;21.20;99.90
37408;DHT22;24866;50.248;8.252;2023-06-14T10:02:07;21.30;99.90
37408;DHT22;24866;50.248;8.252;2023-06-14T10:04:40;20.90;99.90
37408;DHT22;24866;50.248;8.252;2023-06-14T10:07:18;20.60;99.90
37408;DHT22;24866;50.248;8.252;2023-06-14T10:09:49;21.30;99.90
37408;DHT22;24866;50.248;8.252;2023-06-14T10:12:20;21.20;99.90
37408;DHT22;24866;50.248;8.252;2023-06-14T10:14:51;20.60;99.90
37408;DHT22;24866;50.248;8.252;2023-06-14T10:17:27;21.00;99.90
37408;DHT22;24866;50.248;8.252;2023-06-14T10:20:17;21.70;99.90
37408;DHT22;24866;50.248;8.252;2023-06-14T10:22:51;21.50;99.90
37408;DHT22;24866;50.248;8.252;2023-06-14T10:25:29;21.40;99.90
37408;DHT22;24866;50.248;8.252;2023-06-14T10:28:14;22.10;99.90
37408;DHT22;24866;50.248;8.252;2023-06-14T10:31:05;21.90;99.90
37408;DHT22;24866;50.248;8.252;2023-06-14T10:33:36;21.70;99.90
37408;DHT22;24866;50.248;8.252;2023-06-14T10:36:24;21.60;99.90
37408;DHT22;24866;50.248;8.252;2023-06-14T10:39:01;22.40;99.90
37408;DHT22;24866;50.248;8.252;2023-06-14T10:41:36;22.60;99.90
37408;DHT22;24866;50.248;8.252;2023-06-14T10:44:39;23.00;99.90
37408;DHT22;24866;50.248;8.252;2023-06-14T10:47:13;22.80;99.90
37408;DHT22;24866;50.248;8.252;2023-06-14T10:49:51;22.60;99.90
37408;DHT22;24866;50.248;8.252;2023-06-14T10:52:24;22.90;99.90
37408;DHT22;24866;50.248;8.252;2023-06-14T10:55:04;23.20;99.90
37408;DHT22;24866;50.248;8.252;2023-06-14T10:57:40;23.10;99.90
37408;DHT22;24866;50.248;8.252;2023-06-14T11:00:13;23.40;99.90
37408;DHT22;24866;50.248;8.252;2023-06-14T11:03:23;23.30;99.90
37408;DHT22;24866;50.248;8.252;2023-06-14T11:05:58;22.80;94.60
37408;DHT22;24866;50.248;8.252;2023-06-14T11:11:35;22.40;1.00
37408;DHT22;24866;50.248;8.252;2023-06-14T11:14:07;22.90;27.60
37408;DHT22;24866;50.248;8.252;2023-06-14T11:16:38;23.00;16.20
37408;DHT22;24866;50.248;8.252;2023-06-14T11:19:08;23.30;30.00
37408;DHT22;24866;50.248;8.252;2023-06-14T11:21:40;24.00;99.10
37408;DHT22;24866;50.248;8.252;2023-06-14T11:24:10;23.50;13.40
37408;DHT22;24866;50.248;8.252;2023-06-14T11:26:41;22.80;1.00
37408;DHT22;24866;50.248;8.252;2023-06-14T11:29:11;23.10;1.00
37408;DHT22;24866;50.248;8.252;2023-06-14T11:31:45;23.70;1.00
37408;DHT22;24866;50.248;8.252;2023-06-14T11:34:15;23.70;1.00
37408;DHT22;24866;50.248;8.252;2023-06-14T11:36:45;23.80;1.00
37408;DHT22;24866;50.248;8.252;2023-06-14T11:39:16;23.60;1.00
37408;DHT22;24866;50.248;8.252;2023-06-14T11:41:46;23.60;1.00
37408;DHT22;24866;50.248;8.252;2023-06-14T11:44:15;23.70;1.00
37408;DHT22;24866;50.248;8.252;2023-06-14T11:46:47;23.20;1.00
37408;DHT22;24866;50.248;8.252;2023-06-14T11:49:16;23.80;1.00
37408;DHT22;24866;50.248;8.252;2023-06-14T11:51:46;24.40;1.00
37408;DHT22;24866;50.248;8.252;2023-06-14T11:54:16;24.60;1.00
37408;DHT22;24866;50.248;8.252;2023-06-14T11:56:46;24.70;1.00
37408;DHT22;24866;50.248;8.252;2023-06-14T11:59:16;24.70;1.00
37408;DHT22;24866;50.248;8.252;2023-06-14T12:01:48;24.30;1.00
37408;DHT22;24866;50.248;8.252;2023-06-14T12:04:23;23.90;1.00
37408;DHT22;24866;50.248;8.252;2023-06-14T12:06:54;24.10;1.00
37408;DHT22;24866;50.248;8.252;2023-06-14T12:09:26;24.80;1.00
37408;DHT22;24866;50.248;8.252;2023-06-14T12:12:00;24.60;1.00
37408;DHT22;24866;50.248;8.252;2023-06-14T12:14:31;24.40;1.00
37408;DHT22;24866;50.248;8.252;2023-06-14T12:17:06;24.80;1.00
37408;DHT22;24866;50.248;8.252;2023-06-14T12:19:42;24.20;1.00
37408;DHT22;24866;50.248;8.252;2023-06-14T12:22:12;24.30;1.00
37408;DHT22;24866;50.248;8.252;2023-06-14T12:24:43;24.20;1.00
37408;DHT22;24866;50.248;8.252;2023-06-14T12:27:13;24.30;1.00
37408;DHT22;24866;50.248;8.252;2023-06-14T12:29:44;24.50;1.00
37408;DHT22;24866;50.248;8.252;2023-06-14T12:32:16;24.40;1.00
37408;DHT22;24866;50.248;8.252;2023-06-14T12:34:46;24.30;1.00
37408;DHT22;24866;50.248;8.252;2023-06-14T12:37:16;24.10;1.00
37408;DHT22;24866;50.248;8.252;2023-06-14T12:39:46;23.90;1.00
37408;DHT22;24866;50.248;8.252;2023-06-14T12:42:16;23.80;1.00
37408;DHT22;24866;50.248;8.252;2023-06-14T12:44:46;24.20;1.00
37408;DHT22;24866;50.248;8.252;2023-06-14T12:47:18;24.60;1.00
37408;DHT22;24866;50.248;8.252;2023-06-14T12:49:50;24.10;99.90
37408;DHT22;24866;50.248;8.252;2023-06-14T12:52:20;24.10;99.90
37408;DHT22;24866;50.248;8.252;2023-06-14T12:54:50;23.50;99.90
37408;DHT22;24866;50.248;8.252;2023-06-14T12:57:19;24.10;99.90
37408;DHT22;24866;50.248;8.252;2023-06-14T12:59:49;24.30;99.90
37408;DHT22;24866;50.248;8.252;2023-06-14T13:02:21;23.60;99.90
37408;DHT22;24866;50.248;8.252;2023-06-14T13:04:53;23.60;99.90
37408;DHT22;24866;50.248;8.252;2023-06-14T13:07:22;24.10;99.90
37408;DHT22;24866;50.248;8.252;2023-06-14T13:09:52;23.80;99.90
37408;DHT22;24866;50.248;8.252;2023-06-14T13:12:22;23.70;99.90
37408;DHT22;24866;50.248;8.252;2023-06-14T13:14:52;23.90;99.90
37408;DHT22;24866;50.248;8.252;2023-06-14T13:17:23;23.90;99.90
37408;DHT22;24866;50.248;8.252;2023-06-14T13:19:53;23.80;99.90
37408;DHT22;24866;50.248;8.252;2023-06-14T13:22:24;23.60;99.90
37408;DHT22;24866;50.248;8.252;2023-06-14T13:24:54;23.40;99.90
37408;DHT22;24866;50.248;8.252;2023-06-14T13:27:25;23.30;99.90
37408;DHT22;24866;50.248;8.252;2023-06-14T13:29:56;23.40;99.90
37408;DHT22;24866;50.248;8.252;2023-06-14T13:32:27;23.40;99.90
37408;DHT22;24866;50.248;8.252;2023-06-14T13:34:57;23.30;99.90
37408;DHT22;24866;50.248;8.252;2023-06-14T13:37:27;23.60;99.90
37408;DHT22;24866;50.248;8.252;2023-06-14T13:39:56;24.30;99.90
37408;DHT22;24866;50.248;8.252;2023-06-14T13:42:28;24.70;99.90
37408;DHT22;24866;50.248;8.252;2023-06-14T13:45:02;24.50;99.90
37408;DHT22;24866;50.248;8.252;2023-06-14T13:47:33;24.10;99.90
37408;DHT22;24866;50.248;8.252;2023-06-14T13:50:04;24.00;99.90
37408;DHT22;24866;50.248;8.252;2023-06-14T13:52:34;23.80;99.90
37408;DHT22;24866;50.248;8.252;2023-06-14T13:55:05;24.30;99.90
37408;DHT22;24866;50.248;8.252;2023-06-14T13:57:35;24.30;99.90
37408;DHT22;24866;50.248;8.252;2023-06-14T14:00:06;24.20;99.90
37408;DHT22;24866;50.248;8.252;2023-06-14T14:02:39;23.70;43.50
37408;DHT22;24866;50.248;8.252;2023-06-14T14:05:09;23.50;19.20
37408;DHT22;24866;50.248;8.252;2023-06-14T14:07:39;23.30;1.00
37408;DHT22;24866;50.248;8.252;2023-06-14T14:10:10;23.60;13.70
37408;DHT22;24866;50.248;8.252;2023-06-14T14:12:41;23.70;22.40
37408;DHT22;24866;50.248;8.252;2023-06-14T14:15:11;23.80;22.10
37408;DHT22;24866;50.248;8.252;2023-06-14T14:17:44;23.50;1.00
37408;DHT22;24866;50.248;8.252;2023-06-14T14:20:15;23.10;1.00
37408;DHT22;24866;50.248;8.252;2023-06-14T14:22:45;23.40;1.00
37408;DHT22;24866;50.248;8.252;2023-06-14T14:25:15;23.70;1.00
37408;DHT22;24866;50.248;8.252;2023-06-14T14:27:45;23.70;1.00
37408;DHT22;24866;50.248;8.252;2023-06-14T14:30:15;23.80;1.00
37408;DHT22;24866;50.248;8.252;2023-06-14T14:32:48;24.00;1.00
37408;DHT22;24866;50.248;8.252;2023-06-14T14:35:18;24.20;1.00
37408;DHT22;24866;50.248;8.252;2023-06-14T14:37:48;24.30;1.00
37408;DHT22;24866;50.248;8.252;2023-06-14T14:40:18;24.30;1.00
37408;DHT22;24866;50.248;8.252;2023-06-14T14:42:48;23.90;1.00
37408;DHT22;24866;50.248;8.252;2023-06-14T14:45:18;24.20;1.00
37408;DHT22;24866;50.248;8.252;2023-06-14T14:47:49;24.30;1.00
37408;DHT22;24866;50.248;8.252;2023-06-14T14:50:20;24.40;1.00
37408;DHT22;24866;50.248;8.252;2023-06-14T14:52:50;24.70;1.00
37408;DHT22;24866;50.248;8.252;2023-06-14T14:55:21;24.60;1.00
37408;DHT22;24866;50.248;8.252;2023-06-14T14:57:51;23.80;1.00
37408;DHT22;24866;50.248;8.252;2023-06-14T15:00:21;23.40;1.00
37408;DHT22;24866;50.248;8.252;2023-06-14T15:02:52;23.40;1.00
37408;DHT22;24866;50.248;8.252;2023-06-14T15:05:23;23.60;1.00
37408;DHT22;24866;50.248;8.252;2023-06-14T15:07:53;23.50;1.00
37408;DHT22;24866;50.248;8.252;2023-06-14T15:10:23;23.50;1.00
37408;DHT22;24866;50.248;8.252;2023-06-14T15:12:53;23.70;1.00
37408;DHT22;24866;50.248;8.252;2023-06-14T15:15:23;24.10;1.00
37408;DHT22;24866;50.248;8.252;2023-06-14T15:17:56;24.80;1.00
37408;DHT22;24866;50.248;8.252;2023-06-14T15:20:27;24.40;1.00
37408;DHT22;24866;50.248;8.252;2023-06-14T15:22:57;24.40;1.00
37408;DHT22;24866;50.248;8.252;2023-06-14T15:25:28;24.10;1.00
37408;DHT22;24866;50.248;8.252;2023-06-14T15:27:58;23.90;1.00
37408;DHT22;24866;50.248;8.252;2023-06-14T15:30:30;23.50;1.00
37408;DHT22;24866;50.248;8.252;2023-06-14T15:33:01;23.50;1.00
37408;DHT22;24866;50.248;8.252;2023-06-14T15:35:31;23.60;1.00
37408;DHT22;24866;50.248;8.252;2023-06-14T15:38:01;23.70;1.00
37408;DHT22;24866;50.248;8.252;2023-06-14T15:40:31;23.90;1.00
37408;DHT22;24866;50.248;8.252;2023-06-14T15:43:01;24.40;1.00
37408;DHT22;24866;50.248;8.252;2023-06-14T15:45:32;24.70;1.00
37408;DHT22;24866;50.248;8.252;2023-06-14T15:48:04;24.90;1.00
37408;DHT22;24866;50.248;8.252;2023-06-14T15:50:33;25.30;1.00
37408;DHT22;24866;50.248;8.252;2023-06-14T15:53:04;25.20;1.00
37408;DHT22;24866;50.248;8.252;2023-06-14T15:55:34;25.20;1.00
37408;DHT22;24866;50.248;8.252;2023-06-14T15:58:04;24.60;1.00
37408;DHT22;24866;50.248;8.252;2023-06-14T16:00:34;24.20;1.00
37408;DHT22;24866;50.248;8.252;2023-06-14T16:03:05;23.70;1.00
37408;DHT22;24866;50.248;8.252;2023-06-14T16:05:35;23.70;1.00